sensor_id;sensor_type;location;lat;lon;timestamp;pressure;altitude;pressure_sealevel;temperature;humidity
11347;BME280;5728;42.722;23.258;2022-10-04T00:01:45;94995.63;;;10.55;84.40
11347;BME280;5728;42.722;23.258;2022-10-04T00:04:17;94999.16;;;10.51;84.17
11347;BME280;5728;42.722;23.258;2022-10-04T00:06:48;94995.75;;;10.46;84.73
11347;BME280;5728;42.722;23.258;2022-10-04T00:09:19;94988.84;;;10.47;84.17
11347;BME280;5728;42.722;23.258;2022-10-04T00:11:51;94990.63;;;10.42;84.45
11347;BME280;5728;42.722;23.258;2022-10-04T00:14:21;94993.84;;;10.60;84.21
11347;BME280;5728;42.722;23.258;2022-10-04T00:16:50;95006.09;;;10.49;83.79
11347;BME280;5728;42.722;23.258;2022-10-04T00:19:24;95002.53;;;10.56;82.83
11347;BME280;5728;42.722;23.258;2022-10-04T00:22:15;94993.88;;;10.57;83.18
11347;BME280;5728;42.722;23.258;2022-10-04T00:25:13;94986.91;;;10.64;82.23
11347;BME280;5728;42.722;23.258;2022-10-04T00:31:19;94984.31;;;10.64;81.76
11347;BME280;5728;42.722;23.258;2022-10-04T00:33:48;94988.00;;;10.43;82.80
11347;BME280;5728;42.722;23.258;2022-10-04T00:36:39;94975.88;;;10.47;83.13
11347;BME280;5728;42.722;23.258;2022-10-04T00:39:23;94984.47;;;10.50;82.67
11347;BME280;5728;42.722;23.258;2022-10-04T00:42:11;94980.19;;;10.46;83.38
11347;BME280;5728;42.722;23.258;2022-10-04T00:44:46;94974.22;;;10.40;82.90
11347;BME280;5728;42.722;23.258;2022-10-04T00:47:23;94965.44;;;10.51;82.85
11347;BME280;5728;42.722;23.258;2022-10-04T00:49:58;94967.22;;;10.45;82.39
11347;BME280;5728;42.722;23.258;2022-10-04T00:52:30;94967.19;;;10.51;82.99
11347;BME280;5728;42.722;23.258;2022-10-04T00:55:01;94964.72;;;10.37;82.82
11347;BME280;5728;42.722;23.258;2022-10-04T00:57:33;94975.16;;;10.33;82.27
11347;BME280;5728;42.722;23.258;2022-10-04T01:00:07;94967.25;;;10.43;82.40
11347;BME280;5728;42.722;23.258;2022-10-04T01:02:46;94966.47;;;10.38;82.50
11347;BME280;5728;42.722;23.258;2022-10-04T01:05:18;94962.81;;;10.53;82.50
11347;BME280;5728;42.722;23.258;2022-10-04T01:07:48;94965.66;;;10.33;82.10
11347;BME280;5728;42.722;23.258;2022-10-04T01:10:19;94965.78;;;10.24;83.01
11347;BME280;5728;42.722;23.258;2022-10-04T01:12:50;94961.44;;;10.26;83.23
11347;BME280;5728;42.722;23.258;2022-10-04T01:15:25;94965.84;;;10.15;83.50
11347;BME280;5728;42.722;23.258;2022-10-04T01:18:14;94969.25;;;10.21;82.99
11347;BME280;5728;42.722;23.258;2022-10-04T01:20:51;94964.00;;;10.26;83.16
11347;BME280;5728;42.722;23.258;2022-10-04T01:23:50;94949.47;;;10.11;83.01
11347;BME280;5728;42.722;23.258;2022-10-04T01:26:39;94952.84;;;10.21;82.45
11347;BME280;5728;42.722;23.258;2022-10-04T01:29:09;94954.56;;;10.22;82.40
11347;BME280;5728;42.722;23.258;2022-10-04T01:31:37;94951.25;;;10.05;82.49
11347;BME280;5728;42.722;23.258;2022-10-04T01:34:05;94952.94;;;10.09;82.33
11347;BME280;5728;42.722;23.258;2022-10-04T01:36:33;94952.13;;;10.07;82.75
11347;BME280;5728;42.722;23.258;2022-10-04T01:39:03;94960.69;;;10.16;82.42
11347;BME280;5728;42.722;23.258;2022-10-04T01:41:37;94961.59;;;10.08;82.75
11347;BME280;5728;42.722;23.258;2022-10-04T01:44:09;94952.28;;;9.89;83.15
11347;BME280;5728;42.722;23.258;2022-10-04T01:46:38;94949.75;;;9.83;83.10
11347;BME280;5728;42.722;23.258;2022-10-04T01:49:09;94955.00;;;9.77;83.36
11347;BME280;5728;42.722;23.258;2022-10-04T01:51:42;94943.69;;;9.87;83.43
11347;BME280;5728;42.722;23.258;2022-10-04T01:54:15;94950.56;;;9.88;82.89
11347;BME280;5728;42.722;23.258;2022-10-04T01:56:46;94948.97;;;9.76;83.99
11347;BME280;5728;42.722;23.258;2022-10-04T01:59:18;94953.19;;;9.85;82.86
11347;BME280;5728;42.722;23.258;2022-10-04T02:01:51;94955.00;;;9.77;83.24
11347;BME280;5728;42.722;23.258;2022-10-04T02:04:22;94959.44;;;9.64;84.36
11347;BME280;5728;42.722;23.258;2022-10-04T02:06:55;94949.09;;;9.64;84.36
11347;BME280;5728;42.722;23.258;2022-10-04T02:09:26;94957.66;;;9.68;84.34
11347;BME280;5728;42.722;23.258;2022-10-04T02:11:54;94964.59;;;9.66;84.72
11347;BME280;5728;42.722;23.258;2022-10-04T02:14:24;94957.84;;;9.48;85.43
11347;BME280;5728;42.722;23.258;2022-10-04T02:16:52;94955.03;;;9.74;84.91
11347;BME280;5728;42.722;23.258;2022-10-04T02:19:20;94955.16;;;9.61;84.96
11347;BME280;5728;42.722;23.258;2022-10-04T02:21:50;94956.81;;;9.66;85.35
11347;BME280;5728;42.722;23.258;2022-10-04T02:24:18;94956.88;;;9.59;85.76
11347;BME280;5728;42.722;23.258;2022-10-04T02:26:50;94967.31;;;9.50;85.57
11347;BME280;5728;42.722;23.258;2022-10-04T02:29:18;94969.94;;;9.46;86.15
11347;BME280;5728;42.722;23.258;2022-10-04T02:31:47;94968.41;;;9.24;86.88
11347;BME280;5728;42.722;23.258;2022-10-04T02:34:32;94974.50;;;9.09;87.71
11347;BME280;5728;42.722;23.258;2022-10-04T02:37:00;94965.97;;;8.96;88.58
11347;BME280;5728;42.722;23.258;2022-10-04T02:39:31;94966.00;;;8.95;89.20
11347;BME280;5728;42.722;23.258;2022-10-04T02:42:03;94968.59;;;8.92;89.70
11347;BME280;5728;42.722;23.258;2022-10-04T02:44:40;94979.66;;;9.15;89.19
11347;BME280;5728;42.722;23.258;2022-10-04T02:47:12;94979.56;;;9.27;89.25
11347;BME280;5728;42.722;23.258;2022-10-04T02:49:44;94983.16;;;9.11;88.28
11347;BME280;5728;42.722;23.258;2022-10-04T02:52:14;94983.19;;;9.05;89.38
11347;BME280;5728;42.722;23.258;2022-10-04T02:54:45;94989.19;;;9.10;89.17
11347;BME280;5728;42.722;23.258;2022-10-04T02:57:20;94977.25;;;8.91;89.64
11347;BME280;5728;42.722;23.258;2022-10-04T02:59:48;94973.00;;;8.81;90.42
11347;BME280;5728;42.722;23.258;2022-10-04T03:02:24;94972.09;;;8.85;90.99
11347;BME280;5728;42.722;23.258;2022-10-04T03:04:51;94981.59;;;8.83;90.42
11347;BME280;5728;42.722;23.258;2022-10-04T03:07:20;94982.41;;;8.86;90.95
11347;BME280;5728;42.722;23.258;2022-10-04T03:09:48;94989.25;;;9.01;90.52
11347;BME280;5728;42.722;23.258;2022-10-04T03:12:15;94971.94;;;9.08;90.38
11347;BME280;5728;42.722;23.258;2022-10-04T03:14:43;94981.31;;;9.25;89.25
11347;BME280;5728;42.722;23.258;2022-10-04T03:17:14;94992.56;;;9.21;89.01
11347;BME280;5728;42.722;23.258;2022-10-04T03:19:42;94995.25;;;9.06;89.25
11347;BME280;5728;42.722;23.258;2022-10-04T03:22:10;95004.66;;;9.18;89.66
11347;BME280;5728;42.722;23.258;2022-10-04T03:24:42;95003.59;;;9.44;88.18
11347;BME280;5728;42.722;23.258;2022-10-04T03:27:14;95002.88;;;9.29;88.31
11347;BME280;5728;42.722;23.258;2022-10-04T03:29:43;95010.53;;;9.39;87.72
11347;BME280;5728;42.722;23.258;2022-10-04T03:32:13;95001.94;;;9.34;88.10
11347;BME280;5728;42.722;23.258;2022-10-04T03:34:47;95012.16;;;9.55;87.20
11347;BME280;5728;42.722;23.258;2022-10-04T03:37:16;95006.94;;;9.58;87.25
11347;BME280;5728;42.722;23.258;2022-10-04T03:39:47;95019.91;;;9.55;86.88
11347;BME280;5728;42.722;23.258;2022-10-04T03:42:16;95028.47;;;9.62;85.82
11347;BME280;5728;42.722;23.258;2022-10-04T03:44:47;95024.22;;;9.56;86.02
11347;BME280;5728;42.722;23.258;2022-10-04T03:47:19;95032.81;;;9.61;86.73
11347;BME280;5728;42.722;23.258;2022-10-04T03:49:48;95023.34;;;9.54;86.44
11347;BME280;5728;42.722;23.258;2022-10-04T03:52:20;95025.84;;;9.68;86.31
11347;BME280;5728;42.722;23.258;2022-10-04T03:54:50;95022.34;;;9.75;85.34
11347;BME280;5728;42.722;23.258;2022-10-04T03:57:19;95024.16;;;9.62;85.81
11347;BME280;5728;42.722;23.258;2022-10-04T03:59:47;95022.50;;;9.55;86.21
11347;BME280;5728;42.722;23.258;2022-10-04T04:02:19;95023.13;;;9.83;85.19
11347;BME280;5728;42.722;23.258;2022-10-04T04:04:54;95019.84;;;9.63;85.84
11347;BME280;5728;42.722;23.258;2022-10-04T04:07:29;95022.47;;;9.60;85.99
11347;BME280;5728;42.722;23.258;2022-10-04T04:10:02;95029.31;;;9.66;85.54
11347;BME280;5728;42.722;23.258;2022-10-04T04:12:36;95037.19;;;9.50;85.92
11347;BME280;5728;42.722;23.258;2022-10-04T04:15:09;95033.69;;;9.60;85.99
11347;BME280;5728;42.722;23.258;2022-10-04T04:17:40;95035.34;;;9.68;85.18
11347;BME280;5728;42.722;23.258;2022-10-04T04:20:26;95041.19;;;9.91;84.72
11347;BME280;5728;42.722;23.258;2022-10-04T04:23:00;95037.03;;;9.73;85.45
11347;BME280;5728;42.722;23.258;2022-10-04T04:25:31;95045.75;;;9.60;85.12
11347;BME280;5728;42.722;23.258;2022-10-04T04:28:04;95044.81;;;9.72;85.32
11347;BME280;5728;42.722;23.258;2022-10-04T04:30:36;95043.94;;;9.73;85.55
11347;BME280;5728;42.722;23.258;2022-10-04T04:33:08;95051.59;;;9.85;84.74
11347;BME280;5728;42.722;23.258;2022-10-04T04:35:37;95049.78;;;9.96;84.91
11347;BME280;5728;42.722;23.258;2022-10-04T04:38:15;95054.00;;;10.09;83.53
11347;BME280;5728;42.722;23.258;2022-10-04T04:40:43;95044.56;;;9.97;84.09
11347;BME280;5728;42.722;23.258;2022-10-04T04:43:23;95046.91;;;10.27;82.20
11347;BME280;5728;42.722;23.258;2022-10-04T04:45:52;95058.50;;;9.89;82.95
11347;BME280;5728;42.722;23.258;2022-10-04T04:48:20;95056.78;;;9.85;84.58
11347;BME280;5728;42.722;23.258;2022-10-04T04:50:51;95058.41;;;9.98;83.43
11347;BME280;5728;42.722;23.258;2022-10-04T04:53:21;95058.50;;;9.86;83.77
11347;BME280;5728;42.722;23.258;2022-10-04T04:55:50;95057.69;;;9.81;84.28
11347;BME280;5728;42.722;23.258;2022-10-04T04:58:19;95063.69;;;9.83;84.38
11347;BME280;5728;42.722;23.258;2022-10-04T05:00:55;95068.75;;;10.01;83.33
11347;BME280;5728;42.722;23.258;2022-10-04T05:03:24;95063.69;;;9.86;83.56
11347;BME280;5728;42.722;23.258;2022-10-04T05:05:54;95064.53;;;9.88;83.54
11347;BME280;5728;42.722;23.258;2022-10-04T05:08:24;95071.41;;;9.92;82.73
11347;BME280;5728;42.722;23.258;2022-10-04T05:11:00;95070.59;;;9.82;84.53
11347;BME280;5728;42.722;23.258;2022-10-04T05:13:33;95065.44;;;9.81;84.17
11347;BME280;5728;42.722;23.258;2022-10-04T05:16:10;95070.53;;;9.90;83.77
11347;BME280;5728;42.722;23.258;2022-10-04T05:18:38;95077.41;;;9.97;83.70
11347;BME280;5728;42.722;23.258;2022-10-04T05:21:11;95079.09;;;10.01;83.25
11347;BME280;5728;42.722;23.258;2022-10-04T05:23:39;95075.78;;;9.87;83.31
11347;BME280;5728;42.722;23.258;2022-10-04T05:26:10;95086.78;;;10.10;83.15
11347;BME280;5728;42.722;23.258;2022-10-04T05:28:37;95086.72;;;10.22;82.49
11347;BME280;5728;42.722;23.258;2022-10-04T05:31:29;95084.75;;;10.45;82.65
11347;BME280;5728;42.722;23.258;2022-10-04T05:34:12;95089.97;;;10.44;82.41
11347;BME280;5728;42.722;23.258;2022-10-04T05:37:12;95093.97;;;10.73;81.71
11347;BME280;5728;42.722;23.258;2022-10-04T05:39:45;95098.41;;;10.64;82.05
11347;BME280;5728;42.722;23.258;2022-10-04T05:42:21;95102.69;;;10.66;82.17
11347;BME280;5728;42.722;23.258;2022-10-04T05:44:52;95095.69;;;10.74;81.39
11347;BME280;5728;42.722;23.258;2022-10-04T05:47:23;95098.25;;;10.76;81.10
11347;BME280;5728;42.722;23.258;2022-10-04T05:49:53;95102.53;;;10.81;80.93
11347;BME280;5728;42.722;23.258;2022-10-04T05:52:27;95107.63;;;10.87;80.28
11347;BME280;5728;42.722;23.258;2022-10-04T05:55:14;95102.28;;;11.03;79.96
11347;BME280;5728;42.722;23.258;2022-10-04T05:57:47;95115.13;;;11.15;79.68
11347;BME280;5728;42.722;23.258;2022-10-04T06:00:19;95125.06;;;11.49;79.17
11347;BME280;5728;42.722;23.258;2022-10-04T06:03:03;95127.25;;;11.78;78.31
11347;BME280;5728;42.722;23.258;2022-10-04T06:05:42;95129.91;;;12.33;78.81
11347;BME280;5728;42.722;23.258;2022-10-04T06:08:21;95128.13;;;12.34;77.08
11347;BME280;5728;42.722;23.258;2022-10-04T06:11:01;95140.31;;;12.32;76.43
11347;BME280;5728;42.722;23.258;2022-10-04T06:14:06;95143.03;;;12.26;76.32
11347;BME280;5728;42.722;23.258;2022-10-04T06:16:57;95137.91;;;11.59;77.64
11347;BME280;5728;42.722;23.258;2022-10-04T06:19:56;95145.75;;;12.18;77.05
11347;BME280;5728;42.722;23.258;2022-10-04T06:22:29;95149.56;;;11.94;76.74
11347;BME280;5728;42.722;23.258;2022-10-04T06:25:01;95161.91;;;11.80;77.85
11347;BME280;5728;42.722;23.258;2022-10-04T06:27:36;95163.78;;;11.66;77.56
11347;BME280;5728;42.722;23.258;2022-10-04T06:30:12;95162.03;;;11.68;78.05
11347;BME280;5728;42.722;23.258;2022-10-04T06:33:01;95171.06;;;12.04;76.55
11347;BME280;5728;42.722;23.258;2022-10-04T06:36:03;95156.97;;;12.18;75.91
11347;BME280;5728;42.722;23.258;2022-10-04T06:42:02;95148.75;;;12.46;74.47
11347;BME280;5728;42.722;23.258;2022-10-04T06:44:41;95154.91;;;12.89;73.97
11347;BME280;5728;42.722;23.258;2022-10-04T06:47:24;95153.97;;;12.93;73.41
11347;BME280;5728;42.722;23.258;2022-10-04T06:49:59;95161.78;;;12.93;72.63
11347;BME280;5728;42.722;23.258;2022-10-04T06:52:50;95162.41;;;13.09;72.00
11347;BME280;5728;42.722;23.258;2022-10-04T06:55:37;95166.03;;;12.50;71.76
11347;BME280;5728;42.722;23.258;2022-10-04T06:58:29;95169.03;;;12.24;72.72
11347;BME280;5728;42.722;23.258;2022-10-04T07:01:03;95160.25;;;12.83;71.78
11347;BME280;5728;42.722;23.258;2022-10-04T07:03:37;95165.03;;;13.07;70.74
11347;BME280;5728;42.722;23.258;2022-10-04T07:06:07;95158.75;;;13.62;69.89
11347;BME280;5728;42.722;23.258;2022-10-04T07:08:40;95171.66;;;13.23;69.76
11347;BME280;5728;42.722;23.258;2022-10-04T07:11:16;95168.28;;;13.18;70.21
11347;BME280;5728;42.722;23.258;2022-10-04T07:13:52;95163.41;;;12.50;70.74
11347;BME280;5728;42.722;23.258;2022-10-04T07:16:31;95180.28;;;12.25;71.70
11347;BME280;5728;42.722;23.258;2022-10-04T07:19:13;95183.72;;;12.27;72.64
11347;BME280;5728;42.722;23.258;2022-10-04T07:21:51;95174.94;;;12.86;69.98
11347;BME280;5728;42.722;23.258;2022-10-04T07:24:24;95177.78;;;12.72;69.87
11347;BME280;5728;42.722;23.258;2022-10-04T07:26:52;95189.81;;;13.28;67.92
11347;BME280;5728;42.722;23.258;2022-10-04T07:29:23;95183.19;;;13.55;66.46
11347;BME280;5728;42.722;23.258;2022-10-04T07:32:03;95188.22;;;13.19;65.69
11347;BME280;5728;42.722;23.258;2022-10-04T07:34:35;95189.53;;;12.94;67.14
11347;BME280;5728;42.722;23.258;2022-10-04T07:37:07;95195.94;;;13.25;66.77
11347;BME280;5728;42.722;23.258;2022-10-04T07:39:45;95184.81;;;14.00;64.78
11347;BME280;5728;42.722;23.258;2022-10-04T07:42:20;95200.03;;;13.80;64.83
11347;BME280;5728;42.722;23.258;2022-10-04T07:44:59;95188.47;;;13.52;65.34
11347;BME280;5728;42.722;23.258;2022-10-04T07:47:29;95203.50;;;13.39;65.42
11347;BME280;5728;42.722;23.258;2022-10-04T07:49:57;95197.16;;;13.51;65.61
11347;BME280;5728;42.722;23.258;2022-10-04T07:52:47;95191.75;;;14.01;63.28
11347;BME280;5728;42.722;23.258;2022-10-04T07:55:26;95201.75;;;13.38;64.15
11347;BME280;5728;42.722;23.258;2022-10-04T07:58:08;95199.88;;;12.97;66.01
11347;BME280;5728;42.722;23.258;2022-10-04T08:00:45;95199.19;;;12.88;66.31
11347;BME280;5728;42.722;23.258;2022-10-04T08:03:39;95196.22;;;13.10;66.08
11347;BME280;5728;42.722;23.258;2022-10-04T08:06:14;95203.25;;;13.02;65.20
11347;BME280;5728;42.722;23.258;2022-10-04T08:08:54;95202.56;;;12.93;65.71
11347;BME280;5728;42.722;23.258;2022-10-04T08:11:37;95205.00;;;13.03;65.66
11347;BME280;5728;42.722;23.258;2022-10-04T08:14:19;95201.47;;;13.07;65.46
11347;BME280;5728;42.722;23.258;2022-10-04T08:17:01;95200.94;;;13.34;64.67
11347;BME280;5728;42.722;23.258;2022-10-04T08:19:41;95197.66;;;13.26;64.39
11347;BME280;5728;42.722;23.258;2022-10-04T08:22:20;95205.75;;;13.56;64.43
11347;BME280;5728;42.722;23.258;2022-10-04T08:24:58;95197.81;;;13.17;63.27
11347;BME280;5728;42.722;23.258;2022-10-04T08:27:42;95201.81;;;13.36;63.20
11347;BME280;5728;42.722;23.258;2022-10-04T08:30:45;95208.69;;;13.82;62.70
11347;BME280;5728;42.722;23.258;2022-10-04T08:33:22;95200.44;;;13.62;61.74
11347;BME280;5728;42.722;23.258;2022-10-04T08:36:01;95200.94;;;13.77;62.31
11347;BME280;5728;42.722;23.258;2022-10-04T08:38:46;95196.34;;;14.30;61.45
11347;BME280;5728;42.722;23.258;2022-10-04T08:41:42;95198.94;;;13.91;61.92
11347;BME280;5728;42.722;23.258;2022-10-04T08:47:43;95185.69;;;14.00;61.88
11347;BME280;5728;42.722;23.258;2022-10-04T08:50:53;95188.44;;;14.34;61.67
11347;BME280;5728;42.722;23.258;2022-10-04T08:53:51;95197.56;;;14.52;60.20
11347;BME280;5728;42.722;23.258;2022-10-04T08:56:41;95203.84;;;14.43;59.22
11347;BME280;5728;42.722;23.258;2022-10-04T08:59:42;95190.38;;;13.85;61.33
11347;BME280;5728;42.722;23.258;2022-10-04T09:02:30;95198.94;;;13.91;62.04
11347;BME280;5728;42.722;23.258;2022-10-04T09:05:27;95209.56;;;13.81;61.95
11347;BME280;5728;42.722;23.258;2022-10-04T09:08:27;95208.28;;;14.00;62.21
11347;BME280;5728;42.722;23.258;2022-10-04T09:11:24;95205.00;;;13.92;62.26
11347;BME280;5728;42.722;23.258;2022-10-04T09:14:10;95215.75;;;13.77;62.89
11347;BME280;5728;42.722;23.258;2022-10-04T09:16:43;95204.16;;;13.90;62.13
11347;BME280;5728;42.722;23.258;2022-10-04T09:19:19;95213.97;;;13.79;62.44
11347;BME280;5728;42.722;23.258;2022-10-04T09:22:12;95207.09;;;13.75;61.86
11347;BME280;5728;42.722;23.258;2022-10-04T09:25:07;95219.59;;;13.58;62.68
11347;BME280;5728;42.722;23.258;2022-10-04T09:27:49;95203.22;;;13.92;62.88
11347;BME280;5728;42.722;23.258;2022-10-04T09:30:37;95209.88;;;14.07;61.56
11347;BME280;5728;42.722;23.258;2022-10-04T09:33:22;95203.16;;;14.37;61.00
11347;BME280;5728;42.722;23.258;2022-10-04T09:36:18;95210.06;;;14.75;59.68
11347;BME280;5728;42.722;23.258;2022-10-04T09:45:30;95202.13;;;15.13;57.25
11347;BME280;5728;42.722;23.258;2022-10-04T09:48:16;95200.16;;;15.21;57.86
11347;BME280;5728;42.722;23.258;2022-10-04T09:51:16;95209.16;;;15.75;55.15
11347;BME280;5728;42.722;23.258;2022-10-04T09:54:00;95201.25;;;16.35;53.17
11347;BME280;5728;42.722;23.258;2022-10-04T09:56:46;95198.81;;;16.29;53.42
11347;BME280;5728;42.722;23.258;2022-10-04T09:59:43;95197.38;;;16.76;53.33
11347;BME280;5728;42.722;23.258;2022-10-04T10:05:25;95200.19;;;16.70;52.91
11347;BME280;5728;42.722;23.258;2022-10-04T10:07:59;95205.63;;;16.35;53.18
11347;BME280;5728;42.722;23.258;2022-10-04T10:10:41;95216.13;;;15.75;54.77
11347;BME280;5728;42.722;23.258;2022-10-04T10:13:50;95217.28;;;15.32;57.35
11347;BME280;5728;42.722;23.258;2022-10-04T10:16:32;95209.25;;;16.31;54.70
11347;BME280;5728;42.722;23.258;2022-10-04T10:19:21;95208.06;;;16.41;52.57
11347;BME280;5728;42.722;23.258;2022-10-04T10:22:01;95216.84;;;16.11;52.85
11347;BME280;5728;42.722;23.258;2022-10-04T10:27:50;95207.44;;;16.88;52.25
11347;BME280;5728;42.722;23.258;2022-10-04T10:30:23;95206.63;;;17.12;51.67
11347;BME280;5728;42.722;23.258;2022-10-04T10:35:58;95199.16;;;16.46;52.76
11347;BME280;5728;42.722;23.258;2022-10-04T10:38:42;95208.75;;;17.01;52.52
11347;BME280;5728;42.722;23.258;2022-10-04T10:44:50;95211.50;;;16.71;52.80
11347;BME280;5728;42.722;23.258;2022-10-04T10:47:33;95212.88;;;16.54;51.64
11347;BME280;5728;42.722;23.258;2022-10-04T10:50:25;95219.94;;;15.94;53.53
11347;BME280;5728;42.722;23.258;2022-10-04T10:53:15;95208.94;;;15.83;54.99
11347;BME280;5728;42.722;23.258;2022-10-04T10:56:22;95217.78;;;15.48;56.67
11347;BME280;5728;42.722;23.258;2022-10-04T10:59:10;95215.53;;;16.25;54.38
11347;BME280;5728;42.722;23.258;2022-10-04T11:04:58;95209.75;;;17.48;50.10
11347;BME280;5728;42.722;23.258;2022-10-04T11:07:46;95197.56;;;17.95;48.92
11347;BME280;5728;42.722;23.258;2022-10-04T11:13:46;95200.91;;;17.01;51.01
11347;BME280;5728;42.722;23.258;2022-10-04T11:16:50;95197.88;;;16.61;52.32
11347;BME280;5728;42.722;23.258;2022-10-04T11:26:04;95208.00;;;16.15;55.82
11347;BME280;5728;42.722;23.258;2022-10-04T11:28:40;95213.88;;;15.63;54.89
11347;BME280;5728;42.722;23.258;2022-10-04T11:31:37;95217.09;;;15.72;54.46
11347;BME280;5728;42.722;23.258;2022-10-04T11:37:15;95203.56;;;16.74;51.67
11347;BME280;5728;42.722;23.258;2022-10-04T11:40:07;95215.97;;;16.67;52.13
11347;BME280;5728;42.722;23.258;2022-10-04T11:42:49;95205.31;;;16.45;52.44
11347;BME280;5728;42.722;23.258;2022-10-04T11:45:39;95212.00;;;15.97;53.04
11347;BME280;5728;42.722;23.258;2022-10-04T11:48:18;95211.09;;;16.27;53.43
11347;BME280;5728;42.722;23.258;2022-10-04T11:51:02;95214.97;;;16.43;52.96
11347;BME280;5728;42.722;23.258;2022-10-04T11:54:01;95214.88;;;16.74;50.90
11347;BME280;5728;42.722;23.258;2022-10-04T11:56:50;95203.19;;;17.10;50.38
11347;BME280;5728;42.722;23.258;2022-10-04T11:59:33;95198.72;;;17.39;49.89
11347;BME280;5728;42.722;23.258;2022-10-04T12:02:34;95213.06;;;17.29;48.51
11347;BME280;5728;42.722;23.258;2022-10-04T12:08:42;95213.31;;;17.72;47.13
11347;BME280;5728;42.722;23.258;2022-10-04T12:11:53;95214.97;;;18.44;47.39
11347;BME280;5728;42.722;23.258;2022-10-04T12:14:56;95212.84;;;17.35;48.09
11347;BME280;5728;42.722;23.258;2022-10-04T12:17:56;95212.72;;;17.13;49.30
11347;BME280;5728;42.722;23.258;2022-10-04T12:20:53;95202.38;;;17.84;48.70
11347;BME280;5728;42.722;23.258;2022-10-04T12:26:40;95210.09;;;17.64;47.22
11347;BME280;5728;42.722;23.258;2022-10-04T12:29:41;95217.19;;;18.31;46.27
11347;BME280;5728;42.722;23.258;2022-10-04T12:32:14;95219.34;;;18.20;45.38
11347;BME280;5728;42.722;23.258;2022-10-04T12:34:50;95218.56;;;17.95;46.52
11347;BME280;5728;42.722;23.258;2022-10-04T12:37:27;95217.44;;;18.48;45.82
11347;BME280;5728;42.722;23.258;2022-10-04T12:40:19;95229.78;;;19.11;44.32
11347;BME280;5728;42.722;23.258;2022-10-04T12:42:54;95213.41;;;18.15;45.99
11347;BME280;5728;42.722;23.258;2022-10-04T12:45:36;95223.19;;;18.12;46.40
11347;BME280;5728;42.722;23.258;2022-10-04T12:48:19;95220.56;;;19.84;43.51
11347;BME280;5728;42.722;23.258;2022-10-04T12:50:53;95221.63;;;19.80;41.22
11347;BME280;5728;42.722;23.258;2022-10-04T12:53:32;95220.19;;;18.22;44.87
11347;BME280;5728;42.722;23.258;2022-10-04T12:56:07;95214.56;;;18.55;45.42
11347;BME280;5728;42.722;23.258;2022-10-04T12:58:49;95228.28;;;18.39;45.03
11347;BME280;5728;42.722;23.258;2022-10-04T13:01:24;95220.31;;;18.18;44.87
11347;BME280;5728;42.722;23.258;2022-10-04T13:04:06;95223.88;;;18.40;45.08
11347;BME280;5728;42.722;23.258;2022-10-04T13:06:47;95229.75;;;17.51;46.19
11347;BME280;5728;42.722;23.258;2022-10-04T13:09:22;95222.38;;;17.87;47.27
11347;BME280;5728;42.722;23.258;2022-10-04T13:12:02;95215.41;;;17.11;47.61
11347;BME280;5728;42.722;23.258;2022-10-04T13:14:48;95220.28;;;16.96;48.56
11347;BME280;5728;42.722;23.258;2022-10-04T13:17:31;95209.84;;;16.68;49.44
11347;BME280;5728;42.722;23.258;2022-10-04T13:20:19;95211.94;;;16.57;49.33
11347;BME280;5728;42.722;23.258;2022-10-04T13:22:55;95209.59;;;16.76;48.81
11347;BME280;5728;42.722;23.258;2022-10-04T13:25:44;95214.78;;;16.77;49.42
11347;BME280;5728;42.722;23.258;2022-10-04T13:28:22;95217.09;;;17.12;48.57
11347;BME280;5728;42.722;23.258;2022-10-04T13:30:56;95214.75;;;17.30;48.54
11347;BME280;5728;42.722;23.258;2022-10-04T13:33:33;95211.16;;;17.07;49.50
11347;BME280;5728;42.722;23.258;2022-10-04T13:36:06;95211.59;;;17.45;47.78
11347;BME280;5728;42.722;23.258;2022-10-04T13:39:01;95219.41;;;16.69;49.08
11347;BME280;5728;42.722;23.258;2022-10-04T13:41:47;95216.38;;;17.34;48.55
11347;BME280;5728;42.722;23.258;2022-10-04T13:44:42;95229.75;;;17.26;48.32
11347;BME280;5728;42.722;23.258;2022-10-04T13:47:38;95217.47;;;18.24;46.18
11347;BME280;5728;42.722;23.258;2022-10-04T13:50:31;95222.31;;;17.88;47.05
11347;BME280;5728;42.722;23.258;2022-10-04T13:53:12;95231.81;;;16.90;48.39
11347;BME280;5728;42.722;23.258;2022-10-04T13:56:04;95232.91;;;17.36;47.95
11347;BME280;5728;42.722;23.258;2022-10-04T13:58:56;95242.81;;;16.46;49.31
11347;BME280;5728;42.722;23.258;2022-10-04T14:01:57;95247.94;;;16.49;49.91
11347;BME280;5728;42.722;23.258;2022-10-04T14:07:46;95240.63;;;15.72;51.43
11347;BME280;5728;42.722;23.258;2022-10-04T14:13:40;95253.16;;;15.26;52.10
11347;BME280;5728;42.722;23.258;2022-10-04T14:16:36;95251.78;;;15.11;52.37
11347;BME280;5728;42.722;23.258;2022-10-04T14:23:00;95253.63;;;15.42;52.48
11347;BME280;5728;42.722;23.258;2022-10-04T14:25:50;95261.22;;;15.51;52.44
11347;BME280;5728;42.722;23.258;2022-10-04T14:28:48;95255.19;;;15.50;53.70
11347;BME280;5728;42.722;23.258;2022-10-04T14:31:41;95264.88;;;15.45;54.63
11347;BME280;5728;42.722;23.258;2022-10-04T14:34:50;95270.34;;;15.68;53.74
11347;BME280;5728;42.722;23.258;2022-10-04T14:40:44;95270.47;;;15.30;54.38
11347;BME280;5728;42.722;23.258;2022-10-04T14:43:47;95269.78;;;14.88;55.05
11347;BME280;5728;42.722;23.258;2022-10-04T14:46:22;95276.22;;;14.74;55.54
11347;BME280;5728;42.722;23.258;2022-10-04T14:49:06;95286.88;;;14.64;55.83
11347;BME280;5728;42.722;23.258;2022-10-04T14:51:49;95282.91;;;14.48;57.00
11347;BME280;5728;42.722;23.258;2022-10-04T14:54:30;95294.25;;;14.47;57.54
11347;BME280;5728;42.722;23.258;2022-10-04T14:57:07;95297.69;;;14.05;59.20
11347;BME280;5728;42.722;23.258;2022-10-04T14:59:50;95296.56;;;14.18;59.13
11347;BME280;5728;42.722;23.258;2022-10-04T15:05:38;95305.16;;;13.80;61.40
11347;BME280;5728;42.722;23.258;2022-10-04T15:08:45;95306.06;;;13.78;61.25
11347;BME280;5728;42.722;23.258;2022-10-04T15:11:35;95307.03;;;13.72;62.66
11347;BME280;5728;42.722;23.258;2022-10-04T15:14:22;95311.63;;;13.61;63.24
11347;BME280;5728;42.722;23.258;2022-10-04T15:16:53;95313.13;;;13.73;63.12